createdAt,value
2017-08-13T01:50:47.467Z,97.10
2017-08-13T01:53:14.370Z,97.20
2017-08-13T01:55:40.457Z,97.20
2017-08-13T01:58:06.686Z,97.10
2017-08-13T02:00:32.795Z,97.20
2017-08-13T02:02:58.899Z,97.30
2017-08-13T02:05:25.750Z,97.10
2017-08-13T02:07:52.591Z,97.10
2017-08-13T02:10:19.487Z,97.10
2017-08-13T02:12:45.588Z,97.10
2017-08-13T02:15:11.680Z,97.20
2017-08-13T02:17:38.636Z,97.10
2017-08-13T02:20:05.475Z,97.20
2017-08-13T02:22:32.310Z,97.10
2017-08-13T02:24:59.154Z,97.10
2017-08-13T02:27:25.993Z,97.10
2017-08-13T02:29:52.862Z,97.30
2017-08-13T02:32:18.962Z,97.10
2017-08-13T02:34:45.798Z,97.00
2017-08-13T02:37:12.691Z,97.10
2017-08-13T02:39:38.786Z,97.00
2017-08-13T02:42:05.150Z,97.30
2017-08-13T02:44:31.250Z,97.10
2017-08-13T02:46:57.354Z,97.10
2017-08-13T02:49:23.492Z,97.00
2017-08-13T02:51:49.859Z,97.00
2017-08-13T02:54:15.957Z,97.10
2017-08-13T02:56:42.062Z,97.10
2017-08-13T02:59:08.914Z,96.90
2017-08-13T03:01:35.764Z,97.10
2017-08-13T03:04:01.866Z,97.10
2017-08-13T03:06:28.725Z,97.40
2017-08-13T03:08:55.576Z,97.10
2017-08-13T03:11:21.676Z,97.10
2017-08-13T03:13:48.545Z,97.40
2017-08-13T03:16:14.642Z,97.10
2017-08-13T03:18:40.743Z,97.00
2017-08-13T03:21:06.957Z,97.10
2017-08-13T03:23:33.057Z,97.10
2017-08-13T03:25:59.147Z,97.10
2017-08-13T03:28:26.117Z,97.10
2017-08-13T03:30:52.220Z,97.10
2017-08-13T03:33:19.064Z,97.20
2017-08-13T03:35:45.942Z,97.20
2017-08-13T03:38:12.050Z,97.20
2017-08-13T03:40:38.151Z,97.30
2017-08-13T03:43:05.262Z,97.40
2017-08-13T03:45:31.364Z,97.30
2017-08-13T03:47:57.454Z,97.30
2017-08-13T03:50:24.321Z,97.70
2017-08-13T03:52:50.459Z,97.40
2017-08-13T03:55:16.554Z,97.40
2017-08-13T03:57:43.422Z,97.50
2017-08-13T04:00:09.518Z,97.40
2017-08-13T04:02:36.356Z,97.50
2017-08-13T04:05:03.757Z,97.60
2017-08-13T04:07:29.842Z,97.50
2017-08-13T04:09:56.694Z,97.40
2017-08-13T04:12:23.547Z,97.50
2017-08-13T04:14:49.648Z,97.40
2017-08-13T04:17:16.491Z,97.50
2017-08-13T04:19:43.369Z,97.50
2017-08-13T04:22:09.462Z,97.50
2017-08-13T04:24:36.319Z,97.50
2017-08-13T04:27:02.818Z,97.50
2017-08-13T04:29:29.762Z,97.80
2017-08-13T04:31:55.862Z,97.40
2017-08-13T04:34:22.237Z,97.50
2017-08-13T04:36:48.341Z,97.40
2017-08-13T04:39:14.567Z,97.40
2017-08-13T04:41:40.858Z,97.40
2017-08-13T04:44:06.950Z,97.40
2017-08-13T04:46:33.836Z,97.30
2017-08-13T04:48:59.977Z,97.30
2017-08-13T04:51:26.086Z,97.30
2017-08-13T04:53:52.181Z,97.30
2017-08-13T04:56:18.302Z,97.30
2017-08-13T04:58:45.134Z,97.50
2017-08-13T05:01:12.306Z,97.50
2017-08-13T05:03:39.172Z,97.50
2017-08-13T05:06:05.748Z,97.40
2017-08-13T05:08:32.169Z,97.40
2017-08-13T05:10:58.498Z,97.40
2017-08-13T05:13:24.600Z,97.50
2017-08-13T05:15:50.705Z,97.50
2017-08-13T05:18:16.802Z,97.40
2017-08-13T05:20:43.635Z,97.30
2017-08-13T05:23:10.470Z,97.50
2017-08-13T05:25:36.563Z,97.40
2017-08-13T05:28:02.801Z,97.30
2017-08-13T05:30:28.892Z,97.30
2017-08-13T05:32:54.986Z,97.20
2017-08-13T05:35:21.840Z,97.40
2017-08-13T05:37:48.690Z,97.20
2017-08-13T05:40:14.803Z,97.10
2017-08-13T05:42:41.690Z,97.00
2017-08-13T05:45:07.807Z,97.00
2017-08-13T05:47:33.894Z,97.00
2017-08-13T05:50:01.009Z,96.90
2017-08-13T05:52:27.110Z,96.80
2017-08-13T05:54:53.215Z,96.90
2017-08-13T05:57:19.415Z,97.00
2017-08-13T05:59:46.264Z,96.80
2017-08-13T06:02:12.561Z,96.50
2017-08-13T06:04:38.670Z,96.20
2017-08-13T06:07:04.770Z,96.20
2017-08-13T06:09:30.894Z,95.90
2017-08-13T06:11:57.269Z,96.10
2017-08-13T06:14:23.366Z,95.70
2017-08-13T06:16:49.465Z,95.50
2017-08-13T06:19:15.833Z,95.20
2017-08-13T06:21:41.947Z,95.30
2017-08-13T06:24:08.063Z,95.00
2017-08-13T06:26:34.214Z,95.40
2017-08-13T06:29:00.315Z,95.20
2017-08-13T06:31:26.425Z,95.30
2017-08-13T06:33:52.550Z,95.50
2017-08-13T06:36:18.658Z,95.40
2017-08-13T06:38:44.760Z,95.60
2017-08-13T06:41:11.166Z,95.00
2017-08-13T06:43:37.262Z,94.30
2017-08-13T06:46:03.367Z,94.40
2017-08-13T06:48:30.310Z,93.70
2017-08-13T06:50:57.151Z,93.40
2017-08-13T06:53:23.986Z,93.40
2017-08-13T06:55:50.850Z,93.80
2017-08-13T06:58:16.930Z,93.60
2017-08-13T07:00:43.040Z,92.80
2017-08-13T07:03:09.164Z,93.20
2017-08-13T07:05:35.255Z,93.40
2017-08-13T07:08:01.355Z,93.60
2017-08-13T07:10:28.270Z,93.50
2017-08-13T07:12:54.371Z,93.50
2017-08-13T07:15:20.482Z,93.40
2017-08-13T07:17:46.613Z,93.10
2017-08-13T07:20:12.707Z,92.90
2017-08-13T07:22:39.550Z,92.00
2017-08-13T07:25:05.647Z,92.00
2017-08-13T07:27:31.742Z,91.50
2017-08-13T07:29:58.136Z,91.70
2017-08-13T07:32:25.052Z,91.70
2017-08-13T07:34:51.138Z,91.70
2017-08-13T07:37:17.257Z,90.80
2017-08-13T07:39:43.362Z,90.80
2017-08-13T07:42:09.581Z,90.90
2017-08-13T07:44:37.078Z,90.40
2017-08-13T07:47:03.169Z,90.40
2017-08-13T07:49:29.263Z,90.70
2017-08-13T07:51:55.411Z,91.10
2017-08-13T07:54:22.245Z,90.10
2017-08-13T07:56:49.078Z,90.20
2017-08-13T07:59:15.198Z,89.70
2017-08-13T08:01:41.314Z,88.00
2017-08-13T08:04:07.402Z,87.30
2017-08-13T08:06:33.754Z,87.50
2017-08-13T08:08:59.857Z,88.60
2017-08-13T08:11:25.951Z,89.00
2017-08-13T08:13:52.823Z,84.90
2017-08-13T08:16:18.941Z,84.90
2017-08-13T08:18:45.074Z,86.80
2017-08-13T08:21:11.526Z,84.60
2017-08-13T08:23:37.629Z,86.80
2017-08-13T08:26:03.968Z,85.30
2017-08-13T08:28:30.084Z,84.30
2017-08-13T08:30:56.258Z,85.20
2017-08-13T08:33:22.389Z,81.50
2017-08-13T08:35:48.515Z,84.00
2017-08-13T08:38:14.613Z,83.50
2017-08-13T08:40:40.715Z,83.60
2017-08-13T08:43:06.860Z,84.50
2017-08-13T08:45:32.971Z,82.50
2017-08-13T08:47:59.058Z,84.00
2017-08-13T08:50:25.954Z,84.00
2017-08-13T08:52:52.063Z,83.30
2017-08-13T08:55:18.154Z,83.20
2017-08-13T08:57:45.002Z,82.80
2017-08-13T09:00:11.884Z,85.70
2017-08-13T09:02:38.421Z,85.80
2017-08-13T09:05:04.510Z,84.30
2017-08-13T09:07:30.604Z,83.20
2017-08-13T09:09:56.727Z,83.80
2017-08-13T09:12:22.817Z,81.20
2017-08-13T09:14:48.932Z,80.40
2017-08-13T09:17:15.139Z,81.90
2017-08-13T09:19:41.980Z,82.00
2017-08-13T09:22:08.810Z,80.80
2017-08-13T09:24:35.698Z,80.10
2017-08-13T09:27:01.790Z,80.00
2017-08-13T09:29:28.630Z,80.30
2017-08-13T09:31:55.814Z,78.20
2017-08-13T09:34:21.924Z,78.20
2017-08-13T09:36:48.022Z,80.10
2017-08-13T09:39:14.896Z,79.60
2017-08-13T09:41:40.994Z,79.60
2017-08-13T09:44:07.844Z,78.00
2017-08-13T09:46:34.925Z,78.10
2017-08-13T09:49:01.037Z,78.10
2017-08-13T09:51:27.136Z,78.30
2017-08-13T09:53:53.994Z,79.00
2017-08-13T09:56:20.093Z,79.00
2017-08-13T09:58:46.937Z,79.50
2017-08-13T10:01:14.147Z,81.80
2017-08-13T10:03:40.248Z,81.70
2017-08-13T10:06:06.334Z,80.60
2017-08-13T10:08:33.445Z,80.60
2017-08-13T10:10:59.618Z,80.60
2017-08-13T10:13:26.462Z,78.30
2017-08-13T10:15:53.317Z,78.60
2017-08-13T10:18:19.421Z,78.60
2017-08-13T10:20:45.533Z,78.00
2017-08-13T10:23:11.860Z,78.40
2017-08-13T10:25:37.984Z,79.40
2017-08-13T10:28:04.284Z,77.70
2017-08-13T10:30:30.578Z,76.60
2017-08-13T10:32:56.862Z,74.50
2017-08-13T10:35:23.164Z,71.90
2017-08-13T10:37:49.468Z,74.10
2017-08-13T10:40:15.578Z,71.80
2017-08-13T10:42:42.647Z,70.70
2017-08-13T10:45:08.801Z,70.10
2017-08-13T10:47:34.894Z,71.50
2017-08-13T10:50:01.000Z,69.70
2017-08-13T10:52:27.127Z,68.70
2017-08-13T10:54:53.967Z,60.80
2017-08-13T10:57:20.811Z,61.10
2017-08-13T10:59:47.659Z,62.00
2017-08-13T11:02:14.547Z,63.00
2017-08-13T11:04:40.695Z,63.00
2017-08-13T11:07:06.787Z,64.00
2017-08-13T11:09:32.887Z,66.00
2017-08-13T11:11:59.853Z,65.50
2017-08-13T11:14:25.949Z,65.60
2017-08-13T11:16:52.791Z,55.20
2017-08-13T11:19:19.655Z,55.90
2017-08-13T11:21:45.764Z,55.90
2017-08-13T11:24:12.604Z,57.60
2017-08-13T11:26:39.701Z,56.30
2017-08-13T11:29:05.807Z,56.30
2017-08-13T11:31:31.911Z,54.30
2017-08-13T11:33:58.046Z,53.90
2017-08-13T11:36:24.148Z,56.00
2017-08-13T11:38:50.998Z,55.90
2017-08-13T11:41:17.845Z,58.00
2017-08-13T11:43:44.677Z,58.60
2017-08-13T11:46:12.291Z,55.70
2017-08-13T11:48:38.393Z,55.60
2017-08-13T11:51:04.495Z,53.10
2017-08-13T11:53:31.352Z,51.30
2017-08-13T11:55:57.459Z,51.30
2017-08-13T11:58:24.312Z,54.60
2017-08-13T12:00:50.448Z,54.70
2017-08-13T12:03:16.547Z,51.90
2017-08-13T12:05:43.390Z,50.60
2017-08-13T12:08:10.265Z,49.10
2017-08-13T12:10:36.374Z,49.10
2017-08-13T12:13:02.607Z,50.80
2017-08-13T12:15:28.871Z,50.50
2017-08-13T12:17:54.968Z,50.00
2017-08-13T12:20:21.066Z,49.60
2017-08-13T12:22:47.941Z,50.10
2017-08-13T12:25:14.055Z,49.90
2017-08-13T12:27:40.161Z,50.50
2017-08-13T12:30:07.365Z,48.90
2017-08-13T12:32:33.458Z,48.90
2017-08-13T12:34:59.567Z,49.40
2017-08-13T12:37:26.539Z,49.60
2017-08-13T12:39:52.639Z,49.60
2017-08-13T12:42:18.730Z,45.70
2017-08-13T12:44:44.874Z,46.70
2017-08-13T12:47:11.714Z,48.40
2017-08-13T12:49:37.820Z,47.80
2017-08-13T12:52:03.929Z,49.20
2017-08-13T12:54:30.046Z,45.30
2017-08-13T12:56:56.144Z,44.50
2017-08-13T12:59:22.335Z,43.00
2017-08-13T13:01:48.427Z,44.50
2017-08-13T13:04:14.532Z,44.90
2017-08-13T13:06:40.887Z,46.10
2017-08-13T13:09:06.988Z,47.10
2017-08-13T13:11:33.090Z,44.30
2017-08-13T13:13:59.199Z,48.30
2017-08-13T13:16:25.294Z,50.90
2017-08-13T13:18:51.430Z,44.40
2017-08-13T13:21:17.544Z,43.20
2017-08-13T13:23:43.649Z,44.40
2017-08-13T13:26:09.778Z,46.30
2017-08-13T13:28:35.890Z,43.10
2017-08-13T13:31:01.995Z,42.70
2017-08-13T13:33:28.474Z,42.10
2017-08-13T13:35:54.591Z,41.20
2017-08-13T13:38:20.695Z,44.20
2017-08-13T13:40:46.979Z,44.30
2017-08-13T13:43:13.079Z,48.60
2017-08-13T13:45:39.191Z,47.90
2017-08-13T13:48:05.331Z,49.80
2017-08-13T13:50:31.434Z,50.00
2017-08-13T13:52:57.538Z,49.80
2017-08-13T13:55:23.672Z,50.30
2017-08-13T13:57:49.778Z,47.30
2017-08-13T14:00:15.870Z,45.90
2017-08-13T14:02:42.020Z,47.20
2017-08-13T14:05:08.862Z,55.00
2017-08-13T14:07:35.763Z,53.80
2017-08-13T14:10:01.868Z,53.90
2017-08-13T14:12:27.967Z,55.10
2017-08-13T14:14:54.099Z,56.30
2017-08-13T14:17:20.206Z,55.40
2017-08-13T14:19:46.306Z,53.70
2017-08-13T14:22:12.454Z,50.40
2017-08-13T14:24:38.551Z,50.40
2017-08-13T14:27:04.661Z,48.60
2017-08-13T14:29:30.991Z,49.90
2017-08-13T14:31:57.500Z,53.20
2017-08-13T14:34:23.622Z,51.50
2017-08-13T14:36:49.762Z,51.10
2017-08-13T14:39:15.871Z,51.80
2017-08-13T14:41:41.966Z,53.00
2017-08-13T14:44:08.111Z,52.30
2017-08-13T14:46:34.202Z,53.60
2017-08-13T14:49:00.311Z,50.70
2017-08-13T14:51:26.450Z,50.10
2017-08-13T14:53:52.554Z,51.80
2017-08-13T14:56:18.662Z,45.90
2017-08-13T14:58:45.119Z,43.30
2017-08-13T15:01:11.242Z,46.50
2017-08-13T15:03:37.334Z,45.90
2017-08-13T15:06:03.462Z,49.00
2017-08-13T15:08:29.572Z,50.80
2017-08-13T15:10:56.408Z,51.40
2017-08-13T15:13:23.611Z,52.40
2017-08-13T15:15:49.742Z,52.30
2017-08-13T15:18:15.851Z,56.70
2017-08-13T15:20:42.295Z,56.80
2017-08-13T15:23:08.671Z,53.90
2017-08-13T15:25:35.519Z,55.80
2017-08-13T15:28:02.419Z,54.00
2017-08-13T15:30:28.726Z,53.90
2017-08-13T15:32:54.820Z,52.80
2017-08-13T15:35:21.702Z,59.20
2017-08-13T15:37:47.806Z,59.90
2017-08-13T15:40:13.902Z,53.80
2017-08-13T15:42:40.767Z,57.50
2017-08-13T15:45:06.898Z,57.60
2017-08-13T15:47:33.025Z,54.50
2017-08-13T15:49:59.242Z,55.40
2017-08-13T15:52:26.070Z,56.00
2017-08-13T15:54:52.919Z,55.20
2017-08-13T15:57:19.782Z,56.00
2017-08-13T15:59:45.878Z,55.90
2017-08-13T16:02:12.718Z,57.90
2017-08-13T16:04:39.601Z,54.70
2017-08-13T16:07:05.703Z,54.10
2017-08-13T16:09:32.545Z,55.80
2017-08-13T16:11:59.504Z,55.30
2017-08-13T16:14:25.597Z,55.30
2017-08-13T16:16:51.722Z,55.40
2017-08-13T16:19:17.950Z,60.00
2017-08-13T16:21:44.053Z,58.30
2017-08-13T16:24:10.175Z,55.80
2017-08-13T16:26:36.365Z,54.50
2017-08-13T16:29:02.749Z,56.00
2017-08-13T16:31:29.361Z,56.20
2017-08-13T16:33:55.447Z,55.70
2017-08-13T16:36:21.547Z,55.90
2017-08-13T16:38:48.550Z,55.10
2017-08-13T16:41:14.663Z,55.10
2017-08-13T16:43:40.772Z,55.60
2017-08-13T16:46:07.047Z,56.20
2017-08-13T16:48:33.147Z,54.90
2017-08-13T16:50:59.276Z,57.40
2017-08-13T16:53:25.418Z,56.00
2017-08-13T16:55:51.518Z,56.20
2017-08-13T16:58:17.790Z,56.90
2017-08-13T17:00:44.974Z,58.10
2017-08-13T17:03:11.815Z,58.50
2017-08-13T17:05:38.643Z,58.80
2017-08-13T17:08:05.551Z,57.50
2017-08-13T17:10:31.657Z,57.10
2017-08-13T17:12:57.771Z,57.60
2017-08-13T17:15:24.230Z,57.60
2017-08-13T17:17:50.343Z,58.40
2017-08-13T17:20:16.809Z,57.90
2017-08-13T17:22:42.964Z,58.20
2017-08-13T17:25:09.796Z,59.30
2017-08-13T17:27:36.647Z,63.10
2017-08-13T17:30:03.519Z,60.10
2017-08-13T17:32:29.616Z,60.10
2017-08-13T17:34:56.494Z,59.20
2017-08-13T17:37:22.589Z,59.20
2017-08-13T17:39:49.428Z,58.80
2017-08-13T17:42:16.298Z,57.40
2017-08-13T17:44:42.491Z,57.30
2017-08-13T17:47:08.626Z,58.30
2017-08-13T17:49:36.638Z,57.00
2017-08-13T17:52:02.984Z,57.00
2017-08-13T17:54:29.098Z,59.00
2017-08-13T17:56:55.428Z,57.50
2017-08-13T17:59:21.591Z,60.20
2017-08-13T18:01:47.695Z,58.10
2017-08-13T18:04:14.112Z,59.60
2017-08-13T18:06:40.215Z,63.60
2017-08-13T18:09:06.328Z,62.80
2017-08-13T18:11:33.980Z,61.40
2017-08-13T18:14:00.368Z,62.90
2017-08-13T18:16:26.647Z,63.20
2017-08-13T18:18:52.799Z,61.60
2017-08-13T18:21:18.908Z,62.20
2017-08-13T18:23:45.018Z,63.50
2017-08-13T18:26:11.999Z,62.70
2017-08-13T18:28:39.226Z,63.80
2017-08-13T18:31:05.517Z,63.90
2017-08-13T18:33:31.703Z,64.10
2017-08-13T18:35:57.803Z,65.70
2017-08-13T18:38:23.924Z,66.10
2017-08-13T18:40:50.395Z,66.90
2017-08-13T18:43:16.500Z,67.30
2017-08-13T18:45:42.616Z,67.30
2017-08-13T18:48:09.083Z,67.60
2017-08-13T18:50:35.179Z,69.50
2017-08-13T18:53:01.421Z,68.60
2017-08-13T18:55:27.565Z,72.60
2017-08-13T18:57:53.677Z,70.10
2017-08-13T19:00:19.878Z,71.00
2017-08-13T19:02:46.033Z,68.90
2017-08-13T19:05:12.207Z,70.90
2017-08-13T19:07:39.142Z,71.90
2017-08-13T19:10:05.367Z,71.90
2017-08-13T19:12:31.615Z,73.30
2017-08-13T19:14:58.466Z,71.80
2017-08-13T19:17:25.673Z,71.80
2017-08-13T19:19:51.776Z,71.80
2017-08-13T19:22:17.887Z,71.70
2017-08-13T19:24:44.141Z,71.80
2017-08-13T19:27:10.470Z,73.00
2017-08-13T19:29:36.578Z,73.30
2017-08-13T19:32:02.974Z,73.00
2017-08-13T19:34:29.826Z,74.10
2017-08-13T19:36:56.685Z,74.80
2017-08-13T19:39:22.794Z,74.90
2017-08-13T19:41:49.738Z,74.80
2017-08-13T19:44:15.887Z,74.70
2017-08-13T19:46:42.003Z,81.70
2017-08-13T19:49:08.115Z,76.10
2017-08-13T19:51:34.263Z,76.30
2017-08-13T19:54:00.496Z,76.00
2017-08-13T19:56:26.668Z,76.40
2017-08-13T19:58:52.803Z,77.80
2017-08-13T20:01:19.031Z,78.30
2017-08-13T20:03:45.976Z,78.90
2017-08-13T20:06:12.282Z,78.60
2017-08-13T20:08:38.691Z,78.50
2017-08-13T20:11:04.835Z,79.00
2017-08-13T20:13:31.004Z,78.70
2017-08-13T20:15:57.859Z,84.40
2017-08-13T20:18:24.003Z,84.40
2017-08-13T20:20:50.139Z,77.70
2017-08-13T20:23:16.256Z,78.80
2017-08-13T20:25:42.400Z,79.80
2017-08-13T20:28:08.514Z,80.20
2017-08-13T20:30:35.104Z,80.90
2017-08-13T20:33:02.011Z,81.30
2017-08-13T20:35:28.130Z,81.30
2017-08-13T20:37:54.246Z,82.00
2017-08-13T20:40:20.375Z,81.70
2017-08-13T20:42:46.511Z,82.00
2017-08-13T20:45:12.611Z,82.90
2017-08-13T20:47:38.758Z,84.30
2017-08-13T20:50:04.858Z,87.50
2017-08-13T20:52:30.958Z,80.20
2017-08-13T20:54:57.829Z,81.80
2017-08-13T20:57:23.932Z,81.80
2017-08-13T20:59:50.211Z,82.80
2017-08-13T21:02:16.472Z,83.50
2017-08-13T21:04:42.590Z,84.00
2017-08-13T21:07:08.727Z,84.20
2017-08-13T21:09:35.571Z,84.90
2017-08-13T21:12:02.461Z,85.10
2017-08-13T21:14:28.750Z,84.90
2017-08-13T21:16:55.617Z,85.50
2017-08-13T21:19:21.727Z,85.50
2017-08-13T21:21:47.880Z,86.00
2017-08-13T21:24:13.995Z,86.10
2017-08-13T21:26:40.102Z,86.20
2017-08-13T21:29:06.951Z,86.40
2017-08-13T21:31:33.058Z,86.30
2017-08-13T21:33:59.171Z,87.40
2017-08-13T21:36:25.400Z,87.00
2017-08-13T21:38:51.503Z,87.40
2017-08-13T21:41:17.623Z,88.00
2017-08-13T21:43:43.752Z,88.00
2017-08-13T21:46:09.868Z,88.90
2017-08-13T21:48:36.111Z,89.40
2017-08-13T21:51:02.250Z,90.20
2017-08-13T21:53:28.365Z,89.40
2017-08-13T21:55:54.475Z,91.20
2017-08-13T21:58:20.800Z,92.30
2017-08-13T22:00:46.919Z,90.80
2017-08-13T22:03:13.058Z,87.70
2017-08-13T22:05:39.481Z,88.60
2017-08-13T22:08:05.593Z,89.30
2017-08-13T22:10:31.702Z,90.00
2017-08-13T22:12:57.843Z,90.20
2017-08-13T22:15:23.934Z,90.20
2017-08-13T22:17:50.779Z,90.50
2017-08-13T22:20:17.967Z,90.60
2017-08-13T22:22:44.324Z,90.60
2017-08-13T22:25:10.437Z,90.70
2017-08-13T22:27:36.594Z,90.90
2017-08-13T22:30:03.455Z,91.20
2017-08-13T22:32:30.298Z,91.00
2017-08-13T22:34:57.258Z,91.10
2017-08-13T22:37:23.367Z,91.10
2017-08-13T22:39:50.208Z,91.20
2017-08-13T22:42:16.366Z,91.20
2017-08-13T22:44:42.488Z,92.10
2017-08-13T22:47:08.602Z,92.00
2017-08-13T22:49:34.716Z,91.90
2017-08-13T22:52:01.571Z,91.70
2017-08-13T22:54:27.719Z,91.70
2017-08-13T22:56:53.918Z,91.90
2017-08-13T22:59:20.050Z,92.30
2017-08-13T23:01:46.211Z,92.10
2017-08-13T23:04:12.313Z,92.20
2017-08-13T23:06:38.426Z,92.20
2017-08-13T23:09:04.567Z,92.10
2017-08-13T23:11:30.674Z,98.20
2017-08-13T23:13:56.773Z,96.00
2017-08-13T23:16:23.669Z,91.20
2017-08-13T23:18:49.770Z,91.30
2017-08-13T23:21:15.895Z,90.40
2017-08-13T23:23:42.467Z,89.10
2017-08-13T23:26:08.574Z,90.50
2017-08-13T23:28:34.667Z,90.00
2017-08-13T23:31:01.623Z,89.00
2017-08-13T23:33:27.722Z,89.00
2017-08-13T23:35:53.889Z,90.50
2017-08-13T23:38:20.243Z,91.30
2017-08-13T23:40:46.346Z,91.50
2017-08-13T23:43:12.455Z,91.80
2017-08-13T23:45:38.596Z,92.10
2017-08-13T23:48:04.695Z,92.30
2017-08-13T23:50:31.539Z,92.50
2017-08-13T23:52:58.467Z,92.70
2017-08-13T23:55:24.574Z,92.60
2017-08-13T23:57:50.682Z,92.80
